BRS1302 SBYS-SBYS

Flight info

Callsign BRS1302
Flight time 0h 29m
Altitude 9000
Route DCT
Aircraft E312/L-S/C

Departure

Time 2026-04-26 20:31
Airport Campo Fontenelle (SBYS)

Arrival

Time 2026-04-26 21:00
Airport Campo Fontenelle (SBYS)
Time Latitude Longitude Altitude Speed Heading
2026-04-26 20:23 -21.98478 -47.32951 1974 ft 0 kts 90°
2026-04-26 20:28 -21.98492 -47.32927 1974 ft 11 kts 128°
2026-04-26 20:28 -21.98495 -47.32844 1971 ft 15 kts 91°
2026-04-26 20:28 -21.98607 -47.32814 1971 ft 23 kts 185°
2026-04-26 20:28 -21.98798 -47.32813 1972 ft 32 kts 179°
2026-04-26 20:29 -21.99040 -47.32813 1973 ft 38 kts 181°
2026-04-26 20:29 -21.99243 -47.32810 1971 ft 16 kts 179°
2026-04-26 20:29 -21.99340 -47.32805 1974 ft 11 kts 134°
2026-04-26 20:29 -21.99288 -47.32717 1970 ft 20 kts 41°
2026-04-26 20:30 -21.99091 -47.32686 1971 ft 49 kts
2026-04-26 20:30 -21.98594 -47.32692 1988 ft 91 kts
2026-04-26 20:30 -21.97923 -47.32663 2213 ft 99 kts 359°
2026-04-26 20:30 -21.97192 -47.32577 2423 ft 113 kts
2026-04-26 20:31 -21.96366 -47.32398 2771 ft 128 kts 10°
2026-04-26 20:31 -21.95444 -47.32138 3158 ft 140 kts 15°
2026-04-26 20:31 -21.94538 -47.31711 3579 ft 144 kts 43°
2026-04-26 20:31 -21.93985 -47.30782 3918 ft 154 kts 62°
2026-04-26 20:32 -21.93516 -47.29723 4194 ft 164 kts 65°
2026-04-26 20:32 -21.93221 -47.28556 4482 ft 163 kts 92°
2026-04-26 20:32 -21.93291 -47.27308 4607 ft 178 kts 94°
2026-04-26 20:32 -21.93409 -47.25940 4555 ft 191 kts 96°
2026-04-26 20:33 -21.93560 -47.24505 4538 ft 195 kts 97°
2026-04-26 20:33 -21.93736 -47.23052 4548 ft 192 kts 101°
2026-04-26 20:33 -21.93954 -47.21655 4675 ft 191 kts 99°
2026-04-26 20:33 -21.94140 -47.20226 4750 ft 188 kts 98°
2026-04-26 20:34 -21.94306 -47.18919 4931 ft 163 kts 98°
2026-04-26 20:34 -21.94485 -47.17747 4932 ft 164 kts 100°
2026-04-26 20:34 -21.94727 -47.16578 5054 ft 158 kts 105°
2026-04-26 20:34 -21.95449 -47.15721 5045 ft 157 kts 152°
2026-04-26 20:35 -21.96406 -47.15466 5233 ft 139 kts 180°
2026-04-26 20:35 -21.97458 -47.15505 4847 ft 159 kts 174°
2026-04-26 20:35 -21.98376 -47.14986 4993 ft 141 kts 144°
2026-04-26 20:35 -21.99161 -47.14368 4889 ft 142 kts 135°
2026-04-26 20:36 -21.99864 -47.13657 4993 ft 137 kts 138°
2026-04-26 20:36 -22.00373 -47.12836 4866 ft 140 kts 121°
2026-04-26 20:36 -22.00943 -47.12045 5069 ft 130 kts 132°
2026-04-26 20:36 -22.01560 -47.11362 5223 ft 118 kts 136°
2026-04-26 20:37 -22.02318 -47.10876 5073 ft 136 kts 186°
2026-04-26 20:37 -22.03219 -47.11167 5148 ft 135 kts 200°
2026-04-26 20:37 -22.04116 -47.11457 5229 ft 132 kts 177°
2026-04-26 20:37 -22.04940 -47.11098 5378 ft 133 kts 151°
2026-04-26 20:38 -22.05586 -47.10377 5425 ft 135 kts 121°
2026-04-26 20:38 -22.05967 -47.09465 5537 ft 134 kts 110°
2026-04-26 20:38 -22.06341 -47.08480 5132 ft 164 kts 113°
2026-04-26 20:38 -22.06831 -47.07376 4979 ft 159 kts 117°
2026-04-26 20:39 -22.07382 -47.06379 4935 ft 153 kts 123°
2026-04-26 20:39 -22.07942 -47.05456 4840 ft 135 kts 125°
2026-04-26 20:39 -22.08454 -47.04668 4617 ft 115 kts 126°
2026-04-26 20:39 -22.08919 -47.03967 3887 ft 138 kts 124°
2026-04-26 20:40 -22.09493 -47.03134 3516 ft 99 kts 131°
2026-04-26 20:40 -22.09856 -47.02748 3546 ft 80 kts 140°
2026-04-26 20:40 -22.10259 -47.02338 3779 ft 24 kts 77°
2026-04-26 20:40 -22.09696 -47.02345 2813 ft 134 kts
2026-04-26 20:41 -22.09717 -47.01676 2489 ft 153 kts 139°
2026-04-26 20:41 -22.10159 -47.01255 3498 ft 46 kts 300°
2026-04-26 20:41 -22.10804 -47.01354 2797 ft 113 kts 188°
2026-04-26 20:41 -22.11046 -47.01216 3015 ft 77 kts 47°
2026-04-26 20:42 -22.10678 -47.00800 3514 ft 30 kts 121°
2026-04-26 20:42 -22.10439 -47.00147 2491 ft 158 kts 60°
2026-04-26 20:42 -22.10042 -46.99339 3569 ft 14 kts 261°
2026-04-26 20:42 -22.10110 -46.99006 2484 ft 157 kts 99°
2026-04-26 20:43 -22.10650 -46.98223 3331 ft 61 kts 159°
2026-04-26 20:43 -22.11025 -46.97876 2707 ft 116 kts 111°
2026-04-26 20:43 -22.11311 -46.96987 2761 ft 121 kts 115°
2026-04-26 20:43 -22.11619 -46.96330 2933 ft 86 kts 120°
2026-04-26 20:44 -22.11877 -46.95802 2728 ft 86 kts 104°
2026-04-26 20:44 -22.12059 -46.95160 2975 ft 68 kts 111°
2026-04-26 20:44 -22.12445 -46.94767 2429 ft 104 kts 151°
2026-04-26 20:44 -22.13035 -46.94236 2664 ft 126 kts 88°
2026-04-26 20:45 -22.12314 -46.94113 2690 ft 125 kts 321°
2026-04-26 20:45 -22.11799 -46.94765 2748 ft 102 kts 296°
2026-04-26 20:45 -22.11727 -46.95512 2987 ft 115 kts 274°
2026-04-26 20:45 -22.11457 -46.96463 2859 ft 135 kts 292°
2026-04-26 20:46 -22.11167 -46.97127 2998 ft 99 kts 290°
2026-04-26 20:46 -22.10946 -46.97777 2845 ft 90 kts 292°
2026-04-26 20:46 -22.10719 -46.98401 2656 ft 93 kts 294°
2026-04-26 20:46 -22.10397 -46.99110 2717 ft 113 kts 300°
2026-04-26 20:47 -22.09970 -46.99823 2744 ft 117 kts 298°
2026-04-26 20:47 -22.09705 -47.00352 2744 ft 119 kts 302°
2026-04-26 20:47 -22.08943 -47.01180 2782 ft 122 kts 315°
2026-04-26 20:47 -22.08367 -47.01840 2831 ft 121 kts 310°
2026-04-26 20:48 -22.07808 -47.02528 2843 ft 121 kts 312°
2026-04-26 20:48 -22.07245 -47.03186 2934 ft 116 kts 311°
2026-04-26 20:48 -22.06618 -47.03770 2877 ft 127 kts 331°
2026-04-26 20:48 -22.05899 -47.04153 3023 ft 119 kts 339°
2026-04-26 20:49 -22.05062 -47.04325 3001 ft 118 kts 333°
2026-04-26 20:49 -22.04474 -47.04954 2951 ft 126 kts 303°
2026-04-26 20:49 -22.04040 -47.05763 2973 ft 123 kts 295°
2026-04-26 20:49 -22.03743 -47.06609 3032 ft 120 kts 282°
2026-04-26 20:50 -22.03370 -47.07364 3122 ft 115 kts 320°
2026-04-26 20:50 -22.02822 -47.07928 3280 ft 109 kts 304°
2026-04-26 20:50 -22.02371 -47.08608 3344 ft 113 kts 304°
2026-04-26 20:50 -22.01896 -47.09294 3395 ft 115 kts 306°
2026-04-26 20:51 -22.01381 -47.09942 3465 ft 115 kts 310°
2026-04-26 20:51 -22.00794 -47.10564 3465 ft 119 kts 319°
2026-04-26 20:51 -22.00257 -47.11197 3564 ft 116 kts 298°
2026-04-26 20:51 -21.99858 -47.12012 3425 ft 130 kts 307°
2026-04-26 20:52 -21.99317 -47.12769 3431 ft 130 kts 305°
2026-04-26 20:52 -21.98951 -47.13643 3457 ft 128 kts 294°
2026-04-26 20:52 -21.98564 -47.14500 3505 ft 120 kts 296°
2026-04-26 20:52 -21.98168 -47.15293 3533 ft 127 kts 299°
2026-04-26 20:53 -21.97831 -47.16127 3597 ft 124 kts 272°
2026-04-26 20:53 -21.97848 -47.17144 3242 ft 145 kts 270°
2026-04-26 20:53 -21.97805 -47.18177 3146 ft 140 kts 263°
2026-04-26 20:53 -21.98095 -47.19185 2934 ft 145 kts 247°
2026-04-26 20:54 -21.98557 -47.20132 2854 ft 136 kts 243°
2026-04-26 20:54 -21.98959 -47.21015 2864 ft 131 kts 261°
2026-04-26 20:54 -21.98735 -47.21896 3011 ft 119 kts 292°
2026-04-26 20:54 -21.98462 -47.22732 3093 ft 120 kts 288°
2026-04-26 20:55 -21.98277 -47.23641 3054 ft 126 kts 279°
2026-04-26 20:55 -21.98178 -47.24567 2997 ft 132 kts 274°
2026-04-26 20:55 -21.98174 -47.25558 2908 ft 134 kts 268°
2026-04-26 20:55 -21.98274 -47.26575 2787 ft 136 kts 265°
2026-04-26 20:56 -21.98308 -47.27590 2731 ft 133 kts 268°
2026-04-26 20:56 -21.98323 -47.28573 2740 ft 129 kts 270°
2026-04-26 20:56 -21.98338 -47.29546 2695 ft 130 kts 270°
2026-04-26 20:56 -21.98641 -47.30392 2765 ft 123 kts 222°
2026-04-26 20:57 -21.99440 -47.30737 2789 ft 123 kts 184°
2026-04-26 20:57 -22.00268 -47.30642 2904 ft 121 kts 169°
2026-04-26 20:57 -22.01048 -47.30501 2911 ft 104 kts 173°
2026-04-26 20:57 -22.01790 -47.30571 2966 ft 108 kts 207°
2026-04-26 20:58 -22.02299 -47.31117 2984 ft 106 kts 250°
2026-04-26 20:58 -22.02312 -47.31901 2748 ft 104 kts 286°
2026-04-26 20:58 -22.01797 -47.32390 2435 ft 103 kts 342°
2026-04-26 20:58 -22.01118 -47.32524 2314 ft 95 kts 352°
2026-04-26 20:59 -22.00455 -47.32606 2199 ft 105 kts 353°
2026-04-26 20:59 -21.99759 -47.32671 2102 ft 96 kts 355°
2026-04-26 20:59 -21.99132 -47.32684 1971 ft 84 kts 359°
2026-04-26 20:59 -21.98626 -47.32689 1975 ft 57 kts 353°
2026-04-26 21:00 -21.98284 -47.32690 1974 ft 31 kts 359°
2026-04-26 21:00 -21.98149 -47.32764 1971 ft 19 kts 314°
2026-04-26 21:00 -21.98158 -47.32815 1971 ft 12 kts 174°
2026-04-26 21:00 -21.98276 -47.32814 1971 ft 22 kts 181°
2026-04-26 21:01 -21.98401 -47.32814 1973 ft 16 kts 179°
2026-04-26 21:01 -21.98491 -47.32822 1972 ft 12 kts 232°
2026-04-26 21:01 -21.98496 -47.32916 1971 ft 10 kts 272°
2026-04-26 21:01 -21.98498 -47.32966 1971 ft 6 kts 265°
2026-04-26 21:02 -21.98484 -47.32972 1974 ft 2 kts
2026-04-26 21:02 -21.98478 -47.32956 1974 ft 3 kts 87°
2026-04-26 21:02 -21.98477 -47.32946 1973 ft 0 kts 89°